createdAt,value
2023-02-02T00:22:44.389Z,84.25
2023-02-02T00:37:47.640Z,84.00
2023-02-02T00:52:50.728Z,84.12
2023-02-02T01:07:53.643Z,84.14
2023-02-02T01:22:56.518Z,84.09
2023-02-02T01:38:00.585Z,84.09
2023-02-02T01:53:19.431Z,84.29
2023-02-02T02:08:43.752Z,84.30
2023-02-02T02:24:50.185Z,84.10
2023-02-02T02:40:37.869Z,84.09
2023-02-02T02:56:31.593Z,83.95
2023-02-02T03:11:35.292Z,84.18
2023-02-02T03:26:37.959Z,84.55
2023-02-02T03:41:40.625Z,85.10
2023-02-02T03:56:43.068Z,85.29
2023-02-02T04:12:00.237Z,85.58
2023-02-02T04:27:17.546Z,85.89
2023-02-02T04:42:20.419Z,86.15
2023-02-02T04:57:37.975Z,86.18
2023-02-02T05:12:55.701Z,86.26
2023-02-02T05:27:58.185Z,85.85
2023-02-02T05:43:00.616Z,85.75
2023-02-02T05:58:17.636Z,85.55
2023-02-02T06:13:21.276Z,85.43
2023-02-02T06:28:24.089Z,85.06
2023-02-02T06:43:41.338Z,84.70
2023-02-02T06:58:44.033Z,84.69
2023-02-02T07:13:49.119Z,84.55
2023-02-02T07:28:52.016Z,84.13
2023-02-02T07:43:54.974Z,83.67
2023-02-02T07:58:59.801Z,83.24
2023-02-02T08:14:05.401Z,83.19
2023-02-02T08:29:08.927Z,83.29
2023-02-02T08:44:15.498Z,83.29
2023-02-02T08:59:19.314Z,83.27
2023-02-02T09:14:22.778Z,83.26
2023-02-02T09:29:25.450Z,82.99
2023-02-02T09:44:56.477Z,82.66
2023-02-02T09:59:59.572Z,82.22
2023-02-02T10:15:22.790Z,82.53
2023-02-02T10:30:44.825Z,81.30
2023-02-02T10:45:51.216Z,80.25
2023-02-02T11:01:07.390Z,79.64
2023-02-02T11:16:16.170Z,79.66
2023-02-02T11:31:35.263Z,78.17
2023-02-02T11:46:38.770Z,77.30
2023-02-02T12:01:43.704Z,76.11
2023-02-02T12:17:11.282Z,75.00
2023-02-02T12:32:57.728Z,75.32
2023-02-02T12:48:51.569Z,75.22
2023-02-02T13:20:14.916Z,74.94
2023-02-02T13:35:33.734Z,75.10
2023-02-02T13:51:12.465Z,74.68
2023-02-02T14:06:19.694Z,74.33
2023-02-02T14:21:40.907Z,74.67
2023-02-02T14:37:09.514Z,76.18
2023-02-02T14:52:23.628Z,76.91
2023-02-02T15:07:28.815Z,77.18
2023-02-02T15:22:57.001Z,77.01
2023-02-02T15:38:07.460Z,78.46
2023-02-02T15:53:21.267Z,78.29
2023-02-02T16:08:35.043Z,78.66
2023-02-02T16:23:39.938Z,78.18
2023-02-02T16:38:44.848Z,78.15
2023-02-02T17:09:48.105Z,77.84
2023-02-02T17:24:53.566Z,77.82
2023-02-02T17:39:58.071Z,78.22
2023-02-02T17:55:19.119Z,77.93
2023-02-02T18:10:27.485Z,77.25
2023-02-02T18:25:35.784Z,76.75
2023-02-02T18:40:40.702Z,76.59
2023-02-02T18:55:59.023Z,76.36
2023-02-02T19:27:43.659Z,76.01
2023-02-02T19:58:57.933Z,75.90
2023-02-02T20:14:19.067Z,76.32
2023-02-02T20:29:32.759Z,76.96
2023-02-02T20:44:39.012Z,77.76
2023-02-02T20:59:44.928Z,77.65
2023-02-02T21:14:49.257Z,76.96
2023-02-02T21:30:12.488Z,77.03
2023-02-02T21:45:36.362Z,77.92
2023-02-02T22:00:42.383Z,78.37
2023-02-02T22:15:49.430Z,78.13
2023-02-02T22:30:56.523Z,77.66
2023-02-02T23:01:18.633Z,78.62
2023-02-02T23:16:22.883Z,79.33
2023-02-02T23:31:27.169Z,78.77
